Time;durP1;ratioP1;P1;durP2;ratioP2;P2;SDS_P1;SDS_P2;PMS_P1;PMS_P2;Temp;Humidity;BMP_temperature;BMP_pressure;BME280_temperature;BME280_humidity;BME280_pressure;Samples;Min_cycle;Max_cycle;Signal;HPM_P1;HPM_P2
2021/09/02 00:00:23;;;;;;;21.05;17.60;;;;;;;;;;5074468;28;20048;-73
2021/09/02 00:02:49;;;;;;;20.58;18.15;;;;;;;;;;5074653;28;20049;-73
2021/09/02 00:05:15;;;;;;;19.45;17.48;;;;;;;;;;5074226;28;20029;-73
2021/09/02 00:07:41;;;;;;;19.67;17.77;;;;;;;;;;5074272;28;20038;-73
2021/09/02 00:10:08;;;;;;;19.38;17.45;;;;;;;;;;5074450;28;20029;-73
2021/09/02 00:12:34;;;;;;;19.83;17.90;;;;;;;;;;5074458;28;20031;-73
2021/09/02 00:15:00;;;;;;;20.08;17.90;;;;;;;;;;5074395;28;20028;-73
2021/09/02 00:17:26;;;;;;;20.25;16.75;;;;;;;;;;5074168;28;20016;-73
2021/09/02 00:19:52;;;;;;;17.60;16.00;;;;;;;;;;5073902;28;20051;-73
2021/09/02 00:22:18;;;;;;;20.25;18.17;;;;;;;;;;5074193;28;20069;-73
2021/09/02 00:24:44;;;;;;;19.20;17.17;;;;;;;;;;5074175;28;20029;-73
2021/09/02 00:27:10;;;;;;;17.80;15.88;;;;;;;;;;5074331;28;20025;-73
2021/09/02 00:29:36;;;;;;;19.80;17.48;;;;;;;;;;5073991;28;20047;-74
2021/09/02 00:32:02;;;;;;;22.42;18.13;;;;;;;;;;5073947;28;20442;-73
2021/09/02 00:34:28;;;;;;;17.73;16.00;;;;;;;;;;5073528;28;20462;-73
2021/09/02 00:36:54;;;;;;;18.75;16.85;;;;;;;;;;5073866;28;20021;-74
2021/09/02 00:39:21;;;;;;;17.35;15.63;;;;;;;;;;5065677;28;20029;-73
2021/09/02 00:41:47;;;;;;;20.02;16.08;;;;;;;;;;5053681;28;20039;-74
2021/09/02 00:44:13;;;;;;;18.67;16.85;;;;;;;;;;5053859;28;20028;-73
2021/09/02 00:46:39;;;;;;;19.38;17.27;;;;;;;;;;5053591;28;20521;-74
2021/09/02 00:49:05;;;;;;;18.45;16.67;;;;;;;;;;5053277;28;20448;-74
2021/09/02 00:51:31;;;;;;;17.85;16.13;;;;;;;;;;5053602;28;20058;-74
2021/09/02 00:53:57;;;;;;;22.02;16.75;;;;;;;;;;5052796;28;20094;-73
2021/09/02 00:56:23;;;;;;;17.65;15.95;;;;;;;;;;5053175;28;20486;-73
2021/09/02 00:58:50;;;;;;;17.98;16.13;;;;;;;;;;5053676;28;20033;-73
2021/09/02 01:01:17;;;;;;;18.77;16.85;;;;;;;;;;5053495;28;20036;-73
2021/09/02 01:03:43;;;;;;;17.20;15.60;;;;;;;;;;5053243;28;20029;-74
2021/09/02 01:06:09;;;;;;;17.90;16.13;;;;;;;;;;5053781;28;20029;-74
2021/09/02 01:08:36;;;;;;;17.13;15.32;;;;;;;;;;5053675;28;20039;-73
2021/09/02 01:11:02;;;;;;;17.58;15.77;;;;;;;;;;5053529;28;20027;-74
2021/09/02 01:13:29;;;;;;;15.88;14.38;;;;;;;;;;5053154;28;20136;-74
2021/09/02 01:15:55;;;;;;;17.35;15.75;;;;;;;;;;5053369;28;20075;-74
2021/09/02 01:18:21;;;;;;;15.82;14.20;;;;;;;;;;5052932;28;20463;-74
2021/09/02 01:20:47;;;;;;;18.13;16.30;;;;;;;;;;5053299;28;20049;-74
2021/09/02 01:23:21;;;;;;;17.77;14.23;;;;;;;;;;5053566;28;20036;-73
2021/09/02 01:25:47;;;;;;;17.67;15.80;;;;;;;;;;5052865;28;20027;-73
2021/09/02 01:28:13;;;;;;;17.50;15.82;;;;;;;;;;5053120;28;20051;-73
2021/09/02 01:30:40;;;;;;;16.05;14.60;;;;;;;;;;5053085;28;20025;-74
2021/09/02 01:33:06;;;;;;;17.13;14.68;;;;;;;;;;5053066;28;20116;-74
2021/09/02 01:35:33;;;;;;;17.48;15.30;;;;;;;;;;5052869;28;20025;-75
2021/09/02 01:37:59;;;;;;;15.20;13.75;;;;;;;;;;5053184;28;20029;-74
2021/09/02 01:40:27;;;;;;;14.70;13.27;;;;;;;;;;5053353;28;20378;-74
2021/09/02 01:42:53;;;;;;;15.82;14.07;;;;;;;;;;5053128;28;20523;-74
2021/09/02 01:45:19;;;;;;;15.60;14.13;;;;;;;;;;5052587;28;20025;-75
2021/09/02 01:47:45;;;;;;;15.90;14.40;;;;;;;;;;5052788;28;20044;-74
2021/09/02 01:50:13;;;;;;;14.07;12.45;;;;;;;;;;5053730;28;20035;-73
2021/09/02 01:52:39;;;;;;;15.65;14.05;;;;;;;;;;5053053;28;20021;-73
2021/09/02 01:55:06;;;;;;;15.80;12.48;;;;;;;;;;5052936;28;20152;-74
2021/09/02 01:57:32;;;;;;;19.10;13.80;;;;;;;;;;5052700;28;20074;-74
2021/09/02 01:59:58;;;;;;;13.45;12.07;;;;;;;;;;5052959;28;20459;-74
2021/09/02 02:02:24;;;;;;;15.98;13.45;;;;;;;;;;5052922;28;20099;-74
2021/09/02 02:04:50;;;;;;;15.88;14.27;;;;;;;;;;5052970;28;20025;-73
2021/09/02 02:07:16;;;;;;;15.98;13.98;;;;;;;;;;5056843;28;20147;-73
2021/09/02 02:09:42;;;;;;;14.65;13.30;;;;;;;;;;5056479;28;20090;-74
2021/09/02 02:12:09;;;;;;;15.57;14.07;;;;;;;;;;5056799;28;20039;-74
2021/09/02 02:14:35;;;;;;;13.98;12.63;;;;;;;;;;5056650;28;20025;-73
2021/09/02 02:17:01;;;;;;;13.27;12.05;;;;;;;;;;5056620;28;20029;-73
2021/09/02 02:19:27;;;;;;;15.65;14.07;;;;;;;;;;5056435;28;20474;-74
2021/09/02 02:21:53;;;;;;;14.25;12.77;;;;;;;;;;5056482;28;20033;-73
2021/09/02 02:24:20;;;;;;;14.27;12.23;;;;;;;;;;5056339;28;20025;-76
2021/09/02 02:26:46;;;;;;;14.32;12.20;;;;;;;;;;5056251;28;20025;-73
2021/09/02 02:29:12;;;;;;;14.43;13.07;;;;;;;;;;5056197;28;20033;-73
2021/09/02 02:31:38;;;;;;;17.02;13.15;;;;;;;;;;5056104;28;20025;-74
2021/09/02 02:34:04;;;;;;;19.08;13.40;;;;;;;;;;5056534;28;20075;-73
2021/09/02 02:36:30;;;;;;;14.88;12.30;;;;;;;;;;5056867;28;20066;-74
2021/09/02 02:38:56;;;;;;;14.95;13.48;;;;;;;;;;5056094;28;20024;-74
2021/09/02 02:41:22;;;;;;;19.63;13.10;;;;;;;;;;5056165;28;20021;-73
2021/09/02 02:43:48;;;;;;;17.50;13.75;;;;;;;;;;5055909;28;20100;-74
2021/09/02 02:46:14;;;;;;;13.75;12.38;;;;;;;;;;5055905;28;20029;-73
2021/09/02 02:48:40;;;;;;;12.95;11.25;;;;;;;;;;5056264;28;20037;-74
2021/09/02 02:51:06;;;;;;;12.60;11.35;;;;;;;;;;5056262;28;20029;-74
2021/09/02 02:53:32;;;;;;;13.75;12.35;;;;;;;;;;5055763;28;20471;-74
2021/09/02 02:55:58;;;;;;;14.68;12.55;;;;;;;;;;5070402;28;20498;-73
2021/09/02 02:58:24;;;;;;;14.25;12.80;;;;;;;;;;5075792;28;20378;-75
2021/09/02 03:00:50;;;;;;;13.70;11.55;;;;;;;;;;5075523;28;20028;-75
2021/09/02 03:03:16;;;;;;;15.02;12.48;;;;;;;;;;5075901;28;20486;-75
2021/09/02 03:05:42;;;;;;;14.98;13.48;;;;;;;;;;5075347;28;20470;-75
2021/09/02 03:08:08;;;;;;;14.93;12.90;;;;;;;;;;5075625;28;20029;-74
2021/09/02 03:10:34;;;;;;;20.70;15.40;;;;;;;;;;5075960;28;20028;-75
2021/09/02 03:13:01;;;;;;;18.80;13.23;;;;;;;;;;5075460;28;20436;-75
2021/09/02 03:15:27;;;;;;;18.73;14.50;;;;;;;;;;5075023;28;20402;-76
2021/09/02 03:17:53;;;;;;;16.98;14.55;;;;;;;;;;5074201;28;20109;-75
2021/09/02 03:20:20;;;;;;;24.63;17.90;;;;;;;;;;5075558;28;20363;-75
2021/09/02 03:22:46;;;;;;;26.52;17.38;;;;;;;;;;5075648;28;20020;-74
2021/09/02 03:25:12;;;;;;;26.25;15.38;;;;;;;;;;5074961;28;20027;-75
2021/09/02 03:27:38;;;;;;;20.60;16.70;;;;;;;;;;5073544;28;20052;-75
2021/09/02 03:30:04;;;;;;;19.55;15.95;;;;;;;;;;5075047;28;20042;-75
2021/09/02 03:32:30;;;;;;;23.80;16.13;;;;;;;;;;5075356;28;20078;-74
2021/09/02 03:34:56;;;;;;;17.38;15.43;;;;;;;;;;5075331;28;20103;-74
2021/09/02 03:37:22;;;;;;;18.75;14.95;;;;;;;;;;5074896;28;20025;-77
2021/09/02 03:39:48;;;;;;;16.45;13.45;;;;;;;;;;5075188;28;20078;-75
2021/09/02 03:42:14;;;;;;;18.45;15.55;;;;;;;;;;5074986;28;20466;-75
2021/09/02 03:44:40;;;;;;;21.80;15.70;;;;;;;;;;5074668;28;20044;-75
2021/09/02 03:47:06;;;;;;;15.75;14.00;;;;;;;;;;5075352;28;20058;-75
2021/09/02 03:49:32;;;;;;;18.65;14.15;;;;;;;;;;5074933;28;20085;-75
2021/09/02 03:51:58;;;;;;;16.90;14.80;;;;;;;;;;5074725;28;20378;-75
2021/09/02 03:54:24;;;;;;;16.58;13.88;;;;;;;;;;5074382;28;20075;-75
2021/09/02 03:56:51;;;;;;;16.15;14.32;;;;;;;;;;5074431;28;20024;-74
2021/09/02 03:59:17;;;;;;;16.27;14.45;;;;;;;;;;5074762;28;20032;-75
2021/09/02 04:01:43;;;;;;;16.85;13.93;;;;;;;;;;5074608;28;20035;-74
2021/09/02 04:04:09;;;;;;;16.65;13.43;;;;;;;;;;5074729;28;20028;-75
2021/09/02 04:06:35;;;;;;;26.55;14.90;;;;;;;;;;5074563;28;20362;-75
2021/09/02 04:09:01;;;;;;;19.23;14.57;;;;;;;;;;5074438;28;20059;-75
2021/09/02 04:11:27;;;;;;;17.23;13.48;;;;;;;;;;5074475;28;20102;-75
2021/09/02 04:13:53;;;;;;;18.33;13.75;;;;;;;;;;5074373;28;20210;-75
2021/09/02 04:16:19;;;;;;;21.52;13.80;;;;;;;;;;5074362;28;20028;-75
2021/09/02 04:18:45;;;;;;;19.15;13.10;;;;;;;;;;5074378;28;20458;-75
2021/09/02 04:21:12;;;;;;;15.80;13.20;;;;;;;;;;5074469;28;20051;-75
2021/09/02 04:23:38;;;;;;;16.30;14.52;;;;;;;;;;5074183;28;20462;-75
2021/09/02 04:26:04;;;;;;;15.00;13.43;;;;;;;;;;5074034;28;20035;-75
2021/09/02 04:28:30;;;;;;;14.45;13.00;;;;;;;;;;5073662;28;20055;-74
2021/09/02 04:30:56;;;;;;;15.23;12.13;;;;;;;;;;5073961;28;20480;-75
2021/09/02 04:33:22;;;;;;;14.55;13.15;;;;;;;;;;5074292;28;20036;-75
2021/09/02 04:35:49;;;;;;;13.68;11.18;;;;;;;;;;5073840;28;20122;-75
2021/09/02 04:38:18;;;;;;;12.88;11.68;;;;;;;;;;5073890;28;20500;-75
2021/09/02 04:40:44;;;;;;;16.23;11.98;;;;;;;;;;5074272;28;20056;-75
2021/09/02 04:43:10;;;;;;;15.45;11.63;;;;;;;;;;5073621;28;20056;-75
2021/09/02 04:45:36;;;;;;;14.65;12.15;;;;;;;;;;5073608;28;20024;-75
2021/09/02 04:48:02;;;;;;;13.75;12.43;;;;;;;;;;5073802;28;20043;-75
2021/09/02 04:50:28;;;;;;;12.77;11.68;;;;;;;;;;5073850;28;20100;-75
2021/09/02 04:52:56;;;;;;;14.32;11.55;;;;;;;;;;5073793;28;20025;-75
2021/09/02 04:55:22;;;;;;;15.63;11.75;;;;;;;;;;5073399;28;20055;-75
2021/09/02 04:57:48;;;;;;;11.95;10.77;;;;;;;;;;5073399;28;20419;-75
2021/09/02 05:00:14;;;;;;;12.93;11.55;;;;;;;;;;5074254;28;20058;-75
2021/09/02 05:02:40;;;;;;;11.40;10.40;;;;;;;;;;5073703;28;20513;-75
2021/09/02 05:05:06;;;;;;;16.20;11.30;;;;;;;;;;5072084;28;20032;-74
2021/09/02 05:07:34;;;;;;;19.00;11.65;;;;;;;;;;5072945;28;20485;-73
2021/09/02 05:10:03;;;;;;;23.83;9.45;;;;;;;;;;5073243;28;20032;-74
2021/09/02 05:12:29;;;;;;;11.95;10.75;;;;;;;;;;5072898;28;20020;-74
2021/09/02 05:14:55;;;;;;;15.73;11.23;;;;;;;;;;5073276;28;20056;-74
2021/09/02 05:17:21;;;;;;;11.30;9.57;;;;;;;;;;5073351;28;20340;-76
2021/09/02 05:19:47;;;;;;;11.75;10.75;;;;;;;;;;5072738;28;20020;-75
2021/09/02 05:22:13;;;;;;;12.18;11.07;;;;;;;;;;5073038;28;20120;-76
2021/09/02 05:24:39;;;;;;;10.98;9.88;;;;;;;;;;5072866;28;20378;-75
2021/09/02 05:27:05;;;;;;;12.52;11.32;;;;;;;;;;5072883;28;20028;-77
2021/09/02 05:29:31;;;;;;;11.00;9.93;;;;;;;;;;5072700;28;20488;-75
2021/09/02 05:31:58;;;;;;;12.80;10.23;;;;;;;;;;5073266;28;20098;-75
2021/09/02 05:34:24;;;;;;;10.98;9.95;;;;;;;;;;5072838;28;20055;-76
2021/09/02 05:36:50;;;;;;;14.32;8.80;;;;;;;;;;5073083;28;20055;-74
2021/09/02 05:39:16;;;;;;;11.38;10.18;;;;;;;;;;5073018;28;20030;-73
2021/09/02 05:41:42;;;;;;;11.07;9.93;;;;;;;;;;5075502;28;20381;-75
2021/09/02 05:44:11;;;;;;;14.13;8.60;;;;;;;;;;5076828;28;20557;-73
2021/09/02 05:46:37;;;;;;;18.98;9.43;;;;;;;;;;5077067;28;20070;-73
2021/09/02 05:49:03;;;;;;;20.33;10.57;;;;;;;;;;5076999;28;20052;-73
2021/09/02 05:51:29;;;;;;;13.77;10.10;;;;;;;;;;5076817;28;20025;-72
2021/09/02 05:53:55;;;;;;;16.10;10.65;;;;;;;;;;5076680;28;20426;-74
2021/09/02 05:56:21;;;;;;;19.10;9.55;;;;;;;;;;5076073;28;20086;-72
2021/09/02 05:58:48;;;;;;;21.23;11.02;;;;;;;;;;5075609;28;20024;-74
2021/09/02 06:01:16;;;;;;;17.95;10.23;;;;;;;;;;5075323;28;20079;-75
2021/09/02 06:03:42;;;;;;;17.13;8.57;;;;;;;;;;5074834;28;20017;-75
2021/09/02 06:06:08;;;;;;;13.77;8.82;;;;;;;;;;5076795;28;20028;-75
2021/09/02 06:08:35;;;;;;;10.18;9.18;;;;;;;;;;5076790;28;20047;-75
2021/09/02 06:11:03;;;;;;;12.40;8.20;;;;;;;;;;5076403;28;20055;-75
2021/09/02 06:13:29;;;;;;;10.45;9.07;;;;;;;;;;5076556;28;20020;-75
2021/09/02 06:15:55;;;;;;;11.57;9.10;;;;;;;;;;5077126;28;20070;-75
2021/09/02 06:18:22;;;;;;;15.82;11.10;;;;;;;;;;5076838;28;20032;-75
2021/09/02 06:20:48;;;;;;;10.90;9.90;;;;;;;;;;5076655;28;20029;-75
2021/09/02 06:23:14;;;;;;;11.18;10.25;;;;;;;;;;5076788;28;20021;-75
2021/09/02 06:25:40;;;;;;;10.27;9.30;;;;;;;;;;5076243;28;20462;-74
2021/09/02 06:28:06;;;;;;;11.77;10.68;;;;;;;;;;5075520;28;20032;-74
2021/09/02 06:30:32;;;;;;;12.15;10.02;;;;;;;;;;5076248;28;20482;-75
2021/09/02 06:32:58;;;;;;;10.52;9.63;;;;;;;;;;5076403;28;20078;-75
2021/09/02 06:35:24;;;;;;;10.25;9.45;;;;;;;;;;5076439;28;20032;-75
2021/09/02 06:37:50;;;;;;;11.25;10.07;;;;;;;;;;5075851;28;20377;-75
2021/09/02 06:40:16;;;;;;;12.13;10.95;;;;;;;;;;5075980;28;20100;-75
2021/09/02 06:42:42;;;;;;;11.65;10.40;;;;;;;;;;5076422;28;20020;-75
2021/09/02 06:45:09;;;;;;;11.27;10.27;;;;;;;;;;5076424;28;20028;-75
2021/09/02 06:47:35;;;;;;;12.73;11.05;;;;;;;;;;5075887;28;20020;-75
2021/09/02 06:50:01;;;;;;;13.98;12.55;;;;;;;;;;5075999;28;20477;-75
2021/09/02 06:52:27;;;;;;;11.55;10.45;;;;;;;;;;5076012;28;20036;-76
2021/09/02 06:54:53;;;;;;;12.18;11.10;;;;;;;;;;5075888;28;20079;-75
2021/09/02 06:57:19;;;;;;;12.23;10.98;;;;;;;;;;5076032;28;20028;-75
2021/09/02 06:59:45;;;;;;;12.45;11.30;;;;;;;;;;5075784;28;20470;-75
2021/09/02 07:02:11;;;;;;;15.45;11.95;;;;;;;;;;5076024;28;20395;-75
2021/09/02 07:04:37;;;;;;;14.20;12.77;;;;;;;;;;5076154;28;20048;-75
2021/09/02 07:07:04;;;;;;;18.75;12.27;;;;;;;;;;5075848;28;20029;-75
2021/09/02 07:09:30;;;;;;;12.60;11.35;;;;;;;;;;5075150;28;20382;-75
2021/09/02 07:11:58;;;;;;;14.00;12.75;;;;;;;;;;5075423;28;20454;-74
2021/09/02 07:14:24;;;;;;;14.13;12.80;;;;;;;;;;5075800;28;20082;-74
2021/09/02 07:16:50;;;;;;;15.15;11.85;;;;;;;;;;5075789;28;20370;-75
2021/09/02 07:19:16;;;;;;;14.73;13.43;;;;;;;;;;5075648;28;20029;-75
2021/09/02 07:21:42;;;;;;;15.65;14.25;;;;;;;;;;5074787;28;20351;-75
2021/09/02 07:24:08;;;;;;;15.60;14.18;;;;;;;;;;5075366;28;20025;-75
2021/09/02 07:26:34;;;;;;;15.98;12.38;;;;;;;;;;5074547;28;20031;-76
2021/09/02 07:29:00;;;;;;;17.75;14.45;;;;;;;;;;5073464;28;20473;-75
2021/09/02 07:31:26;;;;;;;14.82;13.30;;;;;;;;;;5071372;28;20020;-76
2021/09/02 07:33:52;;;;;;;16.45;14.52;;;;;;;;;;5072615;28;20056;-75
2021/09/02 07:36:18;;;;;;;15.18;13.65;;;;;;;;;;5072944;28;20021;-75
2021/09/02 07:38:44;;;;;;;16.58;13.88;;;;;;;;;;5072129;28;20016;-75
2021/09/02 07:41:11;;;;;;;16.42;14.93;;;;;;;;;;5073427;28;20029;-75
2021/09/02 07:43:37;;;;;;;13.95;12.70;;;;;;;;;;5073374;28;20450;-75
2021/09/02 07:46:03;;;;;;;14.10;12.80;;;;;;;;;;5073538;28;20146;-76
2021/09/02 07:48:29;;;;;;;16.85;14.82;;;;;;;;;;5071645;28;20033;-75
2021/09/02 07:50:55;;;;;;;14.88;13.05;;;;;;;;;;5073486;28;20024;-74
2021/09/02 07:53:21;;;;;;;12.38;11.18;;;;;;;;;;5073020;28;20028;-74
2021/09/02 07:55:48;;;;;;;14.27;13.00;;;;;;;;;;5057521;28;20588;-75
2021/09/02 07:58:14;;;;;;;17.98;14.30;;;;;;;;;;5053086;28;20502;-76
2021/09/02 08:00:40;;;;;;;14.27;12.85;;;;;;;;;;5053180;28;20556;-75
2021/09/02 08:03:06;;;;;;;16.25;14.68;;;;;;;;;;5052173;28;20144;-75
2021/09/02 08:05:33;;;;;;;14.73;13.50;;;;;;;;;;5054684;28;20029;-73
2021/09/02 08:08:04;;;;;;;14.07;12.88;;;;;;;;;;5055321;28;20064;-73
2021/09/02 08:10:36;;;;;;;13.57;12.45;;;;;;;;;;5053572;28;20084;-75
2021/09/02 08:13:04;;;;;;;12.90;11.63;;;;;;;;;;5055689;28;20351;-75
2021/09/02 08:15:38;;;;;;;13.65;12.13;;;;;;;;;;5055534;28;20422;-75
2021/09/02 08:18:06;;;;;;;14.63;13.07;;;;;;;;;;5054868;28;20026;-75
2021/09/02 08:20:32;;;;;;;14.57;12.95;;;;;;;;;;5053650;28;20025;-75
2021/09/02 08:22:59;;;;;;;16.00;12.15;;;;;;;;;;5052841;28;20032;-74
2021/09/02 08:25:25;;;;;;;18.02;13.07;;;;;;;;;;5052810;28;20099;-74
2021/09/02 08:27:51;;;;;;;13.70;12.40;;;;;;;;;;5052359;28;20025;-74
2021/09/02 08:30:18;;;;;;;12.55;11.40;;;;;;;;;;5052591;28;20049;-74
2021/09/02 08:32:48;;;;;;;12.35;11.15;;;;;;;;;;5052606;28;20478;-75
2021/09/02 08:35:16;;;;;;;19.85;11.88;;;;;;;;;;5051647;28;20029;-76
2021/09/02 08:37:42;;;;;;;12.77;11.50;;;;;;;;;;5052239;28;20505;-76
2021/09/02 08:40:08;;;;;;;13.80;10.93;;;;;;;;;;5051918;28;20453;-76
2021/09/02 08:42:34;;;;;;;12.82;11.40;;;;;;;;;;5052946;28;20025;-75
2021/09/02 08:45:00;;;;;;;15.80;13.05;;;;;;;;;;5053651;28;20017;-76
2021/09/02 08:47:27;;;;;;;24.65;13.07;;;;;;;;;;5053212;28;20463;-75
2021/09/02 08:49:54;;;;;;;14.75;12.65;;;;;;;;;;5053560;28;20116;-75
2021/09/02 08:52:20;;;;;;;32.75;12.60;;;;;;;;;;5054013;28;20017;-79
2021/09/02 08:54:47;;;;;;;11.63;10.52;;;;;;;;;;5051446;28;20081;-75
2021/09/02 08:57:14;;;;;;;14.80;11.15;;;;;;;;;;5053085;28;20033;-75
2021/09/02 08:59:40;;;;;;;9.55;8.70;;;;;;;;;;5053339;28;20387;-76
2021/09/02 09:02:22;;;;;;;10.73;9.00;;;;;;;;;;5052357;28;20017;-76
2021/09/02 09:05:08;;;;;;;12.07;10.88;;;;;;;;;;5053889;28;20029;-77
2021/09/02 09:07:36;;;;;;;10.07;8.27;;;;;;;;;;5053180;28;20020;-75
2021/09/02 09:10:02;;;;;;;12.27;10.35;;;;;;;;;;5073214;28;20378;-75
2021/09/02 09:12:35;;;;;;;11.35;10.20;;;;;;;;;;5074077;28;20552;-76
2021/09/02 09:15:03;;;;;;;7.25;6.55;;;;;;;;;;5059910;28;20032;-78
2021/09/02 09:17:29;;;;;;;9.23;8.15;;;;;;;;;;5074231;28;20021;-77
2021/09/02 09:19:57;;;;;;;7.63;6.88;;;;;;;;;;5067026;28;20025;-76
2021/09/02 09:22:23;;;;;;;11.63;7.90;;;;;;;;;;5051248;28;20088;-76
2021/09/02 09:24:54;;;;;;;11.57;10.25;;;;;;;;;;5049918;28;20017;-76
2021/09/02 09:27:36;;;;;;;12.57;9.00;;;;;;;;;;5051380;28;20186;-76
2021/09/02 09:30:23;;;;;;;15.32;9.27;;;;;;;;;;5053043;28;20029;-75
2021/09/02 09:32:56;;;;;;;11.60;8.23;;;;;;;;;;5048535;28;20035;-76
2021/09/02 09:35:26;;;;;;;10.85;9.85;;;;;;;;;;5052549;28;20028;-76
2021/09/02 09:38:15;;;;;;;16.92;9.43;;;;;;;;;;5050138;28;20025;-76
2021/09/02 09:40:43;;;;;;;13.27;11.63;;;;;;;;;;5050188;28;20013;-74
2021/09/02 09:43:11;;;;;;;11.63;10.55;;;;;;;;;;5052722;28;20017;-74
2021/09/02 09:45:49;;;;;;;12.57;11.27;;;;;;;;;;5051619;28;20014;-74
2021/09/02 09:48:28;;;;;;;13.88;9.68;;;;;;;;;;5050244;28;20033;-75
2021/09/02 09:51:14;;;;;;;10.57;9.68;;;;;;;;;;5050131;28;20053;-76
2021/09/02 09:53:41;;;;;;;11.50;10.35;;;;;;;;;;5049686;28;20068;-76
2021/09/02 09:56:07;;;;;;;10.65;9.65;;;;;;;;;;5052291;28;20060;-75
2021/09/02 09:58:35;;;;;;;12.65;10.85;;;;;;;;;;5052147;28;20116;-75
2021/09/02 10:01:02;;;;;;;12.23;11.13;;;;;;;;;;5052182;28;20462;-76
2021/09/02 10:03:29;;;;;;;10.90;9.93;;;;;;;;;;5051831;28;20455;-75
2021/09/02 10:05:55;;;;;;;11.65;10.50;;;;;;;;;;5052304;28;20047;-74
2021/09/02 10:08:29;;;;;;;20.65;9.88;;;;;;;;;;5052153;28;20033;-75
2021/09/02 10:10:55;;;;;;;9.30;8.35;;;;;;;;;;5051241;28;20078;-78
2021/09/02 10:13:21;;;;;;;12.30;10.02;;;;;;;;;;5051958;28;20367;-76
2021/09/02 10:15:48;;;;;;;11.40;10.48;;;;;;;;;;5051521;28;20107;-75
2021/09/02 10:18:14;;;;;;;10.30;9.35;;;;;;;;;;5051910;28;20033;-76
2021/09/02 10:20:40;;;;;;;11.55;10.38;;;;;;;;;;5051649;28;20028;-76
2021/09/02 10:23:07;;;;;;;12.52;8.88;;;;;;;;;;5052039;28;20039;-76
2021/09/02 10:25:37;;;;;;;9.25;7.97;;;;;;;;;;5051693;28;20108;-76
2021/09/02 10:28:11;;;;;;;33.53;7.27;;;;;;;;;;5056270;28;20538;-78
2021/09/02 10:30:43;;;;;;;13.18;6.75;;;;;;;;;;5053284;28;20023;-73
2021/09/02 10:33:09;;;;;;;;;;;;;;;;;;5055727;28;20017;-75
2021/09/02 10:35:36;;;;;;;10.20;6.00;;;;;;;;;;5055161;28;19905;-77
2021/09/02 10:38:02;;;;;;;11.00;6.95;;;;;;;;;;5055866;28;20036;-77
2021/09/02 10:40:46;;;;;;;7.25;6.55;;;;;;;;;;5054864;28;20199;-75
2021/09/02 10:43:12;;;;;;;10.30;6.82;;;;;;;;;;5053245;28;20021;-76
2021/09/02 10:45:38;;;;;;;6.47;5.88;;;;;;;;;;5054955;28;20028;-74
2021/09/02 10:48:07;;;;;;;8.00;6.95;;;;;;;;;;5054545;28;20462;-75
2021/09/02 10:50:37;;;;;;;11.48;7.05;;;;;;;;;;5055355;28;20025;-75
2021/09/02 10:53:11;;;;;;;6.07;5.57;;;;;;;;;;5055135;28;20021;-76
2021/09/02 10:55:39;;;;;;;8.43;7.43;;;;;;;;;;5054653;28;20049;-77
2021/09/02 10:58:05;;;;;;;7.78;5.40;;;;;;;;;;5055703;28;20025;-79
2021/09/02 11:00:32;;;;;;;5.90;5.40;;;;;;;;;;5054811;28;20091;-78
2021/09/02 11:03:12;;;;;;;6.80;6.20;;;;;;;;;;5054655;28;20017;-79
2021/09/02 11:05:38;;;;;;;7.35;6.70;;;;;;;;;;5050724;28;20106;-76
2021/09/02 11:08:04;;;;;;;7.80;5.75;;;;;;;;;;5052639;28;20037;-76
2021/09/02 11:10:30;;;;;;;10.63;6.10;;;;;;;;;;5053962;28;20028;-75
2021/09/02 11:13:04;;;;;;;7.65;6.85;;;;;;;;;;5051547;28;20025;-74
2021/09/02 11:15:30;;;;;;;7.05;6.45;;;;;;;;;;5054108;28;20398;-74
2021/09/02 11:17:57;;;;;;;13.55;6.05;;;;;;;;;;5051326;28;20017;-73
2021/09/02 11:20:24;;;;;;;8.20;7.40;;;;;;;;;;5052963;28;20029;-76
2021/09/02 11:22:50;;;;;;;12.32;6.13;;;;;;;;;;5053867;28;20024;-76
2021/09/02 11:25:16;;;;;;;10.02;6.53;;;;;;;;;;5050999;28;20382;-73
2021/09/02 11:27:43;;;;;;;7.28;6.63;;;;;;;;;;5054154;28;20064;-73
2021/09/02 11:30:13;;;;;;;8.27;7.45;;;;;;;;;;5053951;28;20112;-75
2021/09/02 11:32:39;;;;;;;9.75;6.35;;;;;;;;;;5051314;28;20025;-73
2021/09/02 11:35:05;;;;;;;5.68;5.18;;;;;;;;;;5053499;28;20017;-72
2021/09/02 11:37:40;;;;;;;7.25;6.53;;;;;;;;;;5052914;28;20025;-75
2021/09/02 11:40:06;;;;;;;7.05;6.30;;;;;;;;;;5053082;28;20021;-75
2021/09/02 11:42:33;;;;;;;6.68;6.03;;;;;;;;;;5052974;28;20066;-76
2021/09/02 11:44:59;;;;;;;5.88;5.38;;;;;;;;;;5052920;28;20079;-74
2021/09/02 11:47:25;;;;;;;8.32;7.55;;;;;;;;;;5053227;28;20033;-76
2021/09/02 11:50:00;;;;;;;8.10;6.60;;;;;;;;;;5053355;28;20040;-75
2021/09/02 11:52:26;;;;;;;8.90;7.72;;;;;;;;;;5053548;28;20029;-74
2021/09/02 11:54:52;;;;;;;7.57;6.82;;;;;;;;;;5058175;28;20052;-75
2021/09/02 11:57:25;;;;;;;9.38;5.72;;;;;;;;;;5073290;28;20039;-73
2021/09/02 11:59:51;;;;;;;11.52;5.57;;;;;;;;;;5073030;28;20044;-72
2021/09/02 12:02:17;;;;;;;6.93;6.28;;;;;;;;;;5072753;28;20028;-80
2021/09/02 12:04:47;;;;;;;7.18;6.53;;;;;;;;;;5073106;28;20434;-74
2021/09/02 12:07:14;;;;;;;7.03;6.30;;;;;;;;;;5072991;28;20027;-74
2021/09/02 12:09:42;;;;;;;7.18;6.47;;;;;;;;;;5072761;28;20036;-74
2021/09/02 12:12:08;;;;;;;7.90;6.72;;;;;;;;;;5072314;28;20460;-73
2021/09/02 12:14:35;;;;;;;7.95;4.65;;;;;;;;;;5073303;28;20056;-74
2021/09/02 12:17:02;;;;;;;7.95;5.93;;;;;;;;;;5072783;28;20070;-74
2021/09/02 12:19:28;;;;;;;5.38;4.88;;;;;;;;;;5073002;28;20031;-74
2021/09/02 12:22:10;;;;;;;6.25;5.60;;;;;;;;;;5074573;28;20059;-75
2021/09/02 12:24:36;;;;;;;;;;;;;;;;;;5075198;28;20025;-75
2021/09/02 12:27:02;;;;;;;7.53;6.07;;;;;;;;;;5074323;28;19965;-74
2021/09/02 12:29:28;;;;;;;7.80;7.03;;;;;;;;;;5073071;28;20028;-73
2021/09/02 12:31:55;;;;;;;5.82;5.25;;;;;;;;;;5073416;28;20035;-74
2021/09/02 12:34:23;;;;;;;5.70;4.68;;;;;;;;;;5072843;28;20027;-75
2021/09/02 12:37:05;;;;;;;6.57;5.93;;;;;;;;;;5073252;28;20027;-78
2021/09/02 12:39:31;;;;;;;6.63;6.03;;;;;;;;;;5071977;28;20119;-78
2021/09/02 12:41:59;;;;;;;15.50;5.00;;;;;;;;;;5073909;28;20035;-78
2021/09/02 12:44:26;;;;;;;9.10;5.65;;;;;;;;;;5074318;28;20163;-80
2021/09/02 12:46:54;;;;;;;14.07;4.43;;;;;;;;;;5074334;28;20103;-78
2021/09/02 12:49:21;;;;;;;22.77;5.85;;;;;;;;;;5074121;28;20501;-75
2021/09/02 12:52:03;;;;;;;9.07;5.65;;;;;;;;;;5073963;28;20063;-77
2021/09/02 12:54:30;;;;;;;10.07;4.85;;;;;;;;;;5073938;28;20032;-76
2021/09/02 12:56:56;;;;;;;5.80;5.20;;;;;;;;;;5070953;28;20053;-78
2021/09/02 12:59:22;;;;;;;5.13;4.68;;;;;;;;;;5072837;28;20029;-75
2021/09/02 13:01:48;;;;;;;6.70;6.00;;;;;;;;;;5072937;28;20453;-77
2021/09/02 13:04:14;;;;;;;6.15;5.65;;;;;;;;;;5073310;28;20037;-76
2021/09/02 13:06:40;;;;;;;5.18;4.78;;;;;;;;;;5073115;28;20024;-77
2021/09/02 13:09:06;;;;;;;6.18;5.43;;;;;;;;;;5071731;28;20082;-75
2021/09/02 13:11:32;;;;;;;4.55;4.15;;;;;;;;;;5071141;28;20021;-76
2021/09/02 13:13:59;;;;;;;4.10;3.80;;;;;;;;;;5071787;28;20458;-75
2021/09/02 13:16:25;;;;;;;4.72;4.32;;;;;;;;;;5073132;28;20069;-74
2021/09/02 13:18:51;;;;;;;9.68;5.03;;;;;;;;;;5072664;28;20039;-75
2021/09/02 13:21:17;;;;;;;5.35;4.80;;;;;;;;;;5072145;28;20454;-75
2021/09/02 13:23:43;;;;;;;5.90;5.30;;;;;;;;;;5073128;28;20032;-75
2021/09/02 13:26:10;;;;;;;13.02;3.88;;;;;;;;;;5073016;28;20178;-75
2021/09/02 13:28:36;;;;;;;7.35;5.07;;;;;;;;;;5073605;28;20033;-75
2021/09/02 13:31:02;;;;;;;4.45;4.03;;;;;;;;;;5073090;28;20047;-75
2021/09/02 13:33:28;;;;;;;4.65;4.25;;;;;;;;;;5072979;28;20028;-76
2021/09/02 13:35:55;;;;;;;4.65;4.25;;;;;;;;;;5072692;28;20032;-75
2021/09/02 13:38:21;;;;;;;5.88;4.38;;;;;;;;;;5072776;28;20112;-75
2021/09/02 13:40:47;;;;;;;11.45;4.10;;;;;;;;;;5073017;28;20473;-75
2021/09/02 13:43:13;;;;;;;4.25;3.85;;;;;;;;;;5073233;28;20103;-75
2021/09/02 13:45:39;;;;;;;3.90;3.60;;;;;;;;;;5072509;28;20024;-75
2021/09/02 13:48:05;;;;;;;8.80;4.97;;;;;;;;;;5072405;28;20033;-75
2021/09/02 13:50:31;;;;;;;5.40;4.07;;;;;;;;;;5072606;28;20112;-75
2021/09/02 13:52:57;;;;;;;4.50;3.92;;;;;;;;;;5072409;28;20378;-75
2021/09/02 13:55:23;;;;;;;5.38;4.88;;;;;;;;;;5072675;28;20094;-74
2021/09/02 13:57:49;;;;;;;4.95;3.97;;;;;;;;;;5072424;28;20028;-75
2021/09/02 14:00:16;;;;;;;5.97;4.63;;;;;;;;;;5072824;28;20086;-74
2021/09/02 14:02:42;;;;;;;5.32;3.50;;;;;;;;;;5076070;28;20025;-73
2021/09/02 14:05:08;;;;;;;3.42;3.13;;;;;;;;;;5076450;28;20488;-74
2021/09/02 14:07:34;;;;;;;4.63;4.22;;;;;;;;;;5076404;28;20028;-73
2021/09/02 14:10:01;;;;;;;4.30;3.90;;;;;;;;;;5076591;28;20041;-74
2021/09/02 14:12:27;;;;;;;4.00;3.47;;;;;;;;;;5077165;28;20029;-73
2021/09/02 14:14:53;;;;;;;3.83;3.30;;;;;;;;;;5076728;28;20519;-73
2021/09/02 14:17:19;;;;;;;7.07;3.58;;;;;;;;;;5076599;28;20127;-72
2021/09/02 14:19:45;;;;;;;4.43;2.95;;;;;;;;;;5076096;28;20477;-72
2021/09/02 14:22:11;;;;;;;5.00;4.43;;;;;;;;;;5076755;28;20063;-73
2021/09/02 14:24:37;;;;;;;3.90;3.30;;;;;;;;;;5076351;28;20113;-74